sensor_id;sensor_type;location;lat;lon;timestamp;P1;durP1;ratioP1;P2;durP2;ratioP2
33696;SDS011;20031;43.416;23.232;2023-03-01T00:01:28;8.45;;;6.63;;
33696;SDS011;20031;43.416;23.232;2023-03-01T00:03:55;10.10;;;6.80;;
33696;SDS011;20031;43.416;23.232;2023-03-01T00:06:21;8.20;;;6.57;;
33696;SDS011;20031;43.416;23.232;2023-03-01T00:08:47;8.05;;;6.40;;
33696;SDS011;20031;43.416;23.232;2023-03-01T00:11:18;9.77;;;7.32;;
33696;SDS011;20031;43.416;23.232;2023-03-01T00:13:46;8.10;;;6.57;;
33696;SDS011;20031;43.416;23.232;2023-03-01T00:16:15;10.55;;;7.00;;
33696;SDS011;20031;43.416;23.232;2023-03-01T00:18:43;10.30;;;6.97;;
33696;SDS011;20031;43.416;23.232;2023-03-01T00:21:09;10.70;;;7.28;;
33696;SDS011;20031;43.416;23.232;2023-03-01T00:23:35;11.25;;;6.63;;
33696;SDS011;20031;43.416;23.232;2023-03-01T00:26:01;8.85;;;7.18;;
33696;SDS011;20031;43.416;23.232;2023-03-01T00:28:31;11.15;;;7.43;;
33696;SDS011;20031;43.416;23.232;2023-03-01T00:30:56;8.50;;;6.90;;
33696;SDS011;20031;43.416;23.232;2023-03-01T00:33:28;8.15;;;6.28;;
33696;SDS011;20031;43.416;23.232;2023-03-01T00:35:53;11.43;;;8.32;;
33696;SDS011;20031;43.416;23.232;2023-03-01T00:38:19;8.95;;;7.30;;
33696;SDS011;20031;43.416;23.232;2023-03-01T00:40:44;8.80;;;7.18;;
33696;SDS011;20031;43.416;23.232;2023-03-01T00:43:10;13.73;;;8.25;;
33696;SDS011;20031;43.416;23.232;2023-03-01T00:45:35;10.15;;;7.40;;
33696;SDS011;20031;43.416;23.232;2023-03-01T00:48:01;11.40;;;8.20;;
33696;SDS011;20031;43.416;23.232;2023-03-01T00:50:26;11.30;;;8.20;;
33696;SDS011;20031;43.416;23.232;2023-03-01T00:52:52;18.25;;;13.10;;
33696;SDS011;20031;43.416;23.232;2023-03-01T00:55:19;24.45;;;15.35;;
33696;SDS011;20031;43.416;23.232;2023-03-01T00:57:44;15.98;;;12.07;;
33696;SDS011;20031;43.416;23.232;2023-03-01T01:00:10;18.33;;;10.77;;
33696;SDS011;20031;43.416;23.232;2023-03-01T01:02:36;20.33;;;11.10;;
33696;SDS011;20031;43.416;23.232;2023-03-01T01:05:02;28.73;;;14.68;;
33696;SDS011;20031;43.416;23.232;2023-03-01T01:07:28;21.02;;;13.48;;
33696;SDS011;20031;43.416;23.232;2023-03-01T01:09:53;15.50;;;10.18;;
33696;SDS011;20031;43.416;23.232;2023-03-01T01:12:18;15.38;;;10.95;;
33696;SDS011;20031;43.416;23.232;2023-03-01T01:14:44;16.35;;;11.20;;
33696;SDS011;20031;43.416;23.232;2023-03-01T01:17:09;10.15;;;8.43;;
33696;SDS011;20031;43.416;23.232;2023-03-01T01:19:35;13.57;;;10.32;;
33696;SDS011;20031;43.416;23.232;2023-03-01T01:22:00;13.43;;;8.98;;
33696;SDS011;20031;43.416;23.232;2023-03-01T01:24:26;13.63;;;9.63;;
33696;SDS011;20031;43.416;23.232;2023-03-01T01:26:51;18.98;;;12.45;;
33696;SDS011;20031;43.416;23.232;2023-03-01T01:29:17;12.48;;;9.90;;
33696;SDS011;20031;43.416;23.232;2023-03-01T01:31:43;13.98;;;10.32;;
33696;SDS011;20031;43.416;23.232;2023-03-01T01:34:12;16.30;;;10.25;;
33696;SDS011;20031;43.416;23.232;2023-03-01T01:36:41;14.07;;;10.48;;
33696;SDS011;20031;43.416;23.232;2023-03-01T01:39:07;14.02;;;10.45;;
33696;SDS011;20031;43.416;23.232;2023-03-01T01:41:33;14.70;;;11.27;;
33696;SDS011;20031;43.416;23.232;2023-03-01T01:44:15;14.93;;;11.23;;
33696;SDS011;20031;43.416;23.232;2023-03-01T01:46:47;13.73;;;10.85;;
33696;SDS011;20031;43.416;23.232;2023-03-01T01:51:44;16.73;;;12.27;;
33696;SDS011;20031;43.416;23.232;2023-03-01T01:54:17;22.95;;;13.32;;
33696;SDS011;20031;43.416;23.232;2023-03-01T01:56:57;24.02;;;13.23;;
33696;SDS011;20031;43.416;23.232;2023-03-01T01:59:27;22.13;;;12.63;;
33696;SDS011;20031;43.416;23.232;2023-03-01T02:01:55;19.63;;;13.90;;
33696;SDS011;20031;43.416;23.232;2023-03-01T02:04:24;24.02;;;13.50;;
33696;SDS011;20031;43.416;23.232;2023-03-01T02:06:55;32.58;;;14.05;;
33696;SDS011;20031;43.416;23.232;2023-03-01T02:09:28;27.45;;;14.43;;
33696;SDS011;20031;43.416;23.232;2023-03-01T02:11:56;22.27;;;14.13;;
33696;SDS011;20031;43.416;23.232;2023-03-01T02:14:22;21.40;;;13.88;;
33696;SDS011;20031;43.416;23.232;2023-03-01T02:16:48;27.00;;;14.20;;
33696;SDS011;20031;43.416;23.232;2023-03-01T02:19:19;29.45;;;15.93;;
33696;SDS011;20031;43.416;23.232;2023-03-01T02:22:11;18.95;;;14.50;;
33696;SDS011;20031;43.416;23.232;2023-03-01T02:27:36;27.80;;;15.20;;
33696;SDS011;20031;43.416;23.232;2023-03-01T02:30:11;19.10;;;14.48;;
33696;SDS011;20031;43.416;23.232;2023-03-01T02:32:38;20.10;;;12.80;;
33696;SDS011;20031;43.416;23.232;2023-03-01T02:35:12;19.15;;;12.55;;
33696;SDS011;20031;43.416;23.232;2023-03-01T02:37:40;19.88;;;13.80;;
33696;SDS011;20031;43.416;23.232;2023-03-01T02:40:08;17.42;;;12.80;;
33696;SDS011;20031;43.416;23.232;2023-03-01T02:42:40;20.58;;;13.50;;
33696;SDS011;20031;43.416;23.232;2023-03-01T02:45:12;25.08;;;15.32;;
33696;SDS011;20031;43.416;23.232;2023-03-01T02:47:38;18.85;;;13.52;;
33696;SDS011;20031;43.416;23.232;2023-03-01T02:50:09;16.48;;;11.98;;
33696;SDS011;20031;43.416;23.232;2023-03-01T02:56:00;17.02;;;11.25;;
33696;SDS011;20031;43.416;23.232;2023-03-01T02:58:26;14.45;;;11.25;;
33696;SDS011;20031;43.416;23.232;2023-03-01T03:00:52;15.73;;;12.20;;
33696;SDS011;20031;43.416;23.232;2023-03-01T03:03:19;17.58;;;12.30;;
33696;SDS011;20031;43.416;23.232;2023-03-01T03:05:46;14.88;;;11.48;;
33696;SDS011;20031;43.416;23.232;2023-03-01T03:08:12;16.52;;;11.63;;
33696;SDS011;20031;43.416;23.232;2023-03-01T03:10:39;15.85;;;11.52;;
33696;SDS011;20031;43.416;23.232;2023-03-01T03:13:11;15.98;;;10.98;;
33696;SDS011;20031;43.416;23.232;2023-03-01T03:15:39;15.85;;;10.75;;
33696;SDS011;20031;43.416;23.232;2023-03-01T03:18:07;25.40;;;12.52;;
33696;SDS011;20031;43.416;23.232;2023-03-01T03:20:35;13.73;;;10.30;;
33696;SDS011;20031;43.416;23.232;2023-03-01T03:23:02;19.77;;;11.65;;
33696;SDS011;20031;43.416;23.232;2023-03-01T03:25:28;19.27;;;11.98;;
33696;SDS011;20031;43.416;23.232;2023-03-01T03:27:54;16.83;;;10.25;;
33696;SDS011;20031;43.416;23.232;2023-03-01T03:30:25;16.35;;;9.50;;
33696;SDS011;20031;43.416;23.232;2023-03-01T03:32:52;15.05;;;10.30;;
33696;SDS011;20031;43.416;23.232;2023-03-01T03:35:25;14.00;;;10.15;;
33696;SDS011;20031;43.416;23.232;2023-03-01T03:37:53;12.48;;;9.63;;
33696;SDS011;20031;43.416;23.232;2023-03-01T03:43:06;12.52;;;10.00;;
33696;SDS011;20031;43.416;23.232;2023-03-01T03:45:34;19.65;;;10.90;;
33696;SDS011;20031;43.416;23.232;2023-03-01T03:48:01;15.88;;;9.85;;
33696;SDS011;20031;43.416;23.232;2023-03-01T03:50:27;12.77;;;9.63;;
33696;SDS011;20031;43.416;23.232;2023-03-01T03:52:53;14.85;;;9.40;;
33696;SDS011;20031;43.416;23.232;2023-03-01T03:55:18;11.63;;;8.65;;
33696;SDS011;20031;43.416;23.232;2023-03-01T03:57:45;15.20;;;9.93;;
33696;SDS011;20031;43.416;23.232;2023-03-01T04:00:19;15.07;;;9.32;;
33696;SDS011;20031;43.416;23.232;2023-03-01T04:02:47;11.15;;;8.43;;
33696;SDS011;20031;43.416;23.232;2023-03-01T04:05:13;11.98;;;8.75;;
33696;SDS011;20031;43.416;23.232;2023-03-01T04:07:41;9.57;;;7.85;;
33696;SDS011;20031;43.416;23.232;2023-03-01T04:10:09;10.82;;;8.15;;
33696;SDS011;20031;43.416;23.232;2023-03-01T04:12:44;10.18;;;8.70;;
33696;SDS011;20031;43.416;23.232;2023-03-01T04:15:10;10.80;;;8.60;;
33696;SDS011;20031;43.416;23.232;2023-03-01T04:17:40;10.85;;;8.00;;
33696;SDS011;20031;43.416;23.232;2023-03-01T04:20:07;10.63;;;7.97;;
33696;SDS011;20031;43.416;23.232;2023-03-01T04:22:34;9.88;;;7.53;;
33696;SDS011;20031;43.416;23.232;2023-03-01T04:25:00;9.90;;;7.78;;
33696;SDS011;20031;43.416;23.232;2023-03-01T04:27:27;10.23;;;7.13;;
33696;SDS011;20031;43.416;23.232;2023-03-01T04:29:52;9.65;;;7.10;;
33696;SDS011;20031;43.416;23.232;2023-03-01T04:32:17;12.32;;;8.20;;
33696;SDS011;20031;43.416;23.232;2023-03-01T04:34:43;10.50;;;7.80;;
33696;SDS011;20031;43.416;23.232;2023-03-01T04:37:08;9.88;;;7.40;;
33696;SDS011;20031;43.416;23.232;2023-03-01T04:39:34;7.97;;;6.68;;
33696;SDS011;20031;43.416;23.232;2023-03-01T04:42:10;11.48;;;6.75;;
33696;SDS011;20031;43.416;23.232;2023-03-01T04:44:36;12.45;;;7.40;;
33696;SDS011;20031;43.416;23.232;2023-03-01T04:47:01;11.70;;;6.60;;
33696;SDS011;20031;43.416;23.232;2023-03-01T04:49:27;12.13;;;7.70;;
33696;SDS011;20031;43.416;23.232;2023-03-01T04:51:52;17.02;;;8.60;;
33696;SDS011;20031;43.416;23.232;2023-03-01T04:54:18;14.70;;;8.40;;
33696;SDS011;20031;43.416;23.232;2023-03-01T04:56:43;13.85;;;8.40;;
33696;SDS011;20031;43.416;23.232;2023-03-01T04:59:08;18.83;;;8.30;;
33696;SDS011;20031;43.416;23.232;2023-03-01T05:01:34;15.60;;;7.75;;
33696;SDS011;20031;43.416;23.232;2023-03-01T05:04:00;9.95;;;6.57;;
33696;SDS011;20031;43.416;23.232;2023-03-01T05:06:28;9.55;;;6.60;;
33696;SDS011;20031;43.416;23.232;2023-03-01T05:08:53;8.40;;;6.45;;
33696;SDS011;20031;43.416;23.232;2023-03-01T05:11:19;11.68;;;6.80;;
33696;SDS011;20031;43.416;23.232;2023-03-01T05:13:44;8.07;;;6.82;;
33696;SDS011;20031;43.416;23.232;2023-03-01T05:16:10;8.73;;;6.75;;
33696;SDS011;20031;43.416;23.232;2023-03-01T05:18:36;59.60;;;22.58;;
33696;SDS011;20031;43.416;23.232;2023-03-01T05:21:03;118.57;;;51.17;;
33696;SDS011;20031;43.416;23.232;2023-03-01T05:23:33;32.67;;;17.42;;
33696;SDS011;20031;43.416;23.232;2023-03-01T05:25:59;22.23;;;12.85;;
33696;SDS011;20031;43.416;23.232;2023-03-01T05:28:26;25.45;;;14.90;;
33696;SDS011;20031;43.416;23.232;2023-03-01T05:30:53;15.75;;;11.82;;
33696;SDS011;20031;43.416;23.232;2023-03-01T05:33:19;12.80;;;9.07;;
33696;SDS011;20031;43.416;23.232;2023-03-01T05:35:46;11.82;;;8.57;;
33696;SDS011;20031;43.416;23.232;2023-03-01T05:38:13;10.18;;;7.30;;
33696;SDS011;20031;43.416;23.232;2023-03-01T05:40:40;10.38;;;7.63;;
33696;SDS011;20031;43.416;23.232;2023-03-01T05:43:07;11.45;;;7.30;;
33696;SDS011;20031;43.416;23.232;2023-03-01T05:45:32;11.10;;;8.57;;
33696;SDS011;20031;43.416;23.232;2023-03-01T05:48:00;11.13;;;8.00;;
33696;SDS011;20031;43.416;23.232;2023-03-01T05:50:26;9.70;;;8.15;;
33696;SDS011;20031;43.416;23.232;2023-03-01T05:53:01;10.52;;;7.82;;
33696;SDS011;20031;43.416;23.232;2023-03-01T05:55:30;16.05;;;9.07;;
33696;SDS011;20031;43.416;23.232;2023-03-01T05:58:00;12.15;;;8.32;;
33696;SDS011;20031;43.416;23.232;2023-03-01T06:00:27;13.52;;;8.18;;
33696;SDS011;20031;43.416;23.232;2023-03-01T06:02:54;14.07;;;9.27;;
33696;SDS011;20031;43.416;23.232;2023-03-01T06:05:20;13.13;;;8.48;;
33696;SDS011;20031;43.416;23.232;2023-03-01T06:07:47;12.57;;;7.78;;
33696;SDS011;20031;43.416;23.232;2023-03-01T06:10:13;12.80;;;7.88;;
33696;SDS011;20031;43.416;23.232;2023-03-01T06:12:40;63.15;;;37.47;;
33696;SDS011;20031;43.416;23.232;2023-03-01T06:15:07;64.10;;;33.28;;
33696;SDS011;20031;43.416;23.232;2023-03-01T06:17:34;37.33;;;18.70;;
33696;SDS011;20031;43.416;23.232;2023-03-01T06:20:05;18.08;;;10.50;;
33696;SDS011;20031;43.416;23.232;2023-03-01T06:22:32;12.05;;;8.32;;
33696;SDS011;20031;43.416;23.232;2023-03-01T06:24:58;13.73;;;9.30;;
33696;SDS011;20031;43.416;23.232;2023-03-01T06:27:23;15.23;;;10.95;;
33696;SDS011;20031;43.416;23.232;2023-03-01T06:29:49;14.10;;;9.93;;
33696;SDS011;20031;43.416;23.232;2023-03-01T06:32:14;11.48;;;8.40;;
33696;SDS011;20031;43.416;23.232;2023-03-01T06:34:40;20.23;;;8.48;;
33696;SDS011;20031;43.416;23.232;2023-03-01T06:37:06;12.43;;;8.20;;
33696;SDS011;20031;43.416;23.232;2023-03-01T06:39:32;12.55;;;7.53;;
33696;SDS011;20031;43.416;23.232;2023-03-01T06:41:58;12.20;;;7.68;;
33696;SDS011;20031;43.416;23.232;2023-03-01T06:44:23;11.00;;;7.07;;
33696;SDS011;20031;43.416;23.232;2023-03-01T06:46:49;11.15;;;6.75;;
33696;SDS011;20031;43.416;23.232;2023-03-01T06:49:14;8.43;;;6.55;;
33696;SDS011;20031;43.416;23.232;2023-03-01T06:51:41;9.18;;;6.50;;
33696;SDS011;20031;43.416;23.232;2023-03-01T06:54:08;7.45;;;6.22;;
33696;SDS011;20031;43.416;23.232;2023-03-01T06:56:33;8.88;;;6.45;;
33696;SDS011;20031;43.416;23.232;2023-03-01T06:58:59;8.60;;;6.70;;
33696;SDS011;20031;43.416;23.232;2023-03-01T07:01:24;11.93;;;6.90;;
33696;SDS011;20031;43.416;23.232;2023-03-01T07:03:50;11.85;;;6.82;;
33696;SDS011;20031;43.416;23.232;2023-03-01T07:06:15;11.23;;;7.25;;
33696;SDS011;20031;43.416;23.232;2023-03-01T07:08:42;7.85;;;6.40;;
33696;SDS011;20031;43.416;23.232;2023-03-01T07:11:08;7.38;;;5.85;;
33696;SDS011;20031;43.416;23.232;2023-03-01T07:13:34;10.05;;;7.05;;
33696;SDS011;20031;43.416;23.232;2023-03-01T07:15:59;9.38;;;6.97;;
33696;SDS011;20031;43.416;23.232;2023-03-01T07:18:25;7.80;;;5.68;;
33696;SDS011;20031;43.416;23.232;2023-03-01T07:20:51;10.13;;;6.68;;
33696;SDS011;20031;43.416;23.232;2023-03-01T07:23:18;16.48;;;10.20;;
33696;SDS011;20031;43.416;23.232;2023-03-01T07:25:43;7.57;;;5.72;;
33696;SDS011;20031;43.416;23.232;2023-03-01T07:28:09;6.32;;;4.82;;
33696;SDS011;20031;43.416;23.232;2023-03-01T07:30:34;6.93;;;5.50;;
33696;SDS011;20031;43.416;23.232;2023-03-01T07:32:59;7.88;;;4.70;;
33696;SDS011;20031;43.416;23.232;2023-03-01T07:35:25;4.95;;;4.20;;
33696;SDS011;20031;43.416;23.232;2023-03-01T07:37:51;9.10;;;4.45;;
33696;SDS011;20031;43.416;23.232;2023-03-01T07:40:18;7.20;;;4.28;;
33696;SDS011;20031;43.416;23.232;2023-03-01T07:42:43;6.53;;;4.80;;
33696;SDS011;20031;43.416;23.232;2023-03-01T07:45:09;7.45;;;4.88;;
33696;SDS011;20031;43.416;23.232;2023-03-01T07:47:35;5.47;;;4.13;;
33696;SDS011;20031;43.416;23.232;2023-03-01T07:50:01;6.35;;;3.55;;
33696;SDS011;20031;43.416;23.232;2023-03-01T07:52:28;4.47;;;3.92;;
33696;SDS011;20031;43.416;23.232;2023-03-01T07:54:53;5.57;;;3.90;;
33696;SDS011;20031;43.416;23.232;2023-03-01T07:57:19;6.68;;;4.10;;
33696;SDS011;20031;43.416;23.232;2023-03-01T07:59:44;4.95;;;3.40;;
33696;SDS011;20031;43.416;23.232;2023-03-01T08:02:10;5.55;;;3.85;;
33696;SDS011;20031;43.416;23.232;2023-03-01T08:04:35;8.13;;;3.80;;
33696;SDS011;20031;43.416;23.232;2023-03-01T08:07:04;4.57;;;3.60;;
33696;SDS011;20031;43.416;23.232;2023-03-01T08:09:30;6.22;;;4.45;;
33696;SDS011;20031;43.416;23.232;2023-03-01T08:11:56;9.15;;;4.95;;
33696;SDS011;20031;43.416;23.232;2023-03-01T08:14:24;6.30;;;4.18;;
33696;SDS011;20031;43.416;23.232;2023-03-01T08:16:50;12.27;;;7.50;;
33696;SDS011;20031;43.416;23.232;2023-03-01T08:19:15;4.15;;;3.28;;
33696;SDS011;20031;43.416;23.232;2023-03-01T08:21:41;2.92;;;2.45;;
33696;SDS011;20031;43.416;23.232;2023-03-01T08:24:07;3.70;;;2.88;;
33696;SDS011;20031;43.416;23.232;2023-03-01T08:26:35;5.55;;;3.28;;
33696;SDS011;20031;43.416;23.232;2023-03-01T08:29:00;22.60;;;4.43;;
33696;SDS011;20031;43.416;23.232;2023-03-01T08:31:28;11.32;;;4.13;;
33696;SDS011;20031;43.416;23.232;2023-03-01T08:34:01;6.13;;;3.75;;
33696;SDS011;20031;43.416;23.232;2023-03-01T08:36:30;12.23;;;4.57;;
33696;SDS011;20031;43.416;23.232;2023-03-01T08:38:58;16.60;;;5.18;;
33696;SDS011;20031;43.416;23.232;2023-03-01T08:41:24;14.30;;;4.88;;
33696;SDS011;20031;43.416;23.232;2023-03-01T08:43:50;6.22;;;3.97;;
33696;SDS011;20031;43.416;23.232;2023-03-01T08:46:17;22.52;;;5.68;;
33696;SDS011;20031;43.416;23.232;2023-03-01T08:48:42;13.45;;;5.68;;
33696;SDS011;20031;43.416;23.232;2023-03-01T08:51:09;37.33;;;7.57;;
33696;SDS011;20031;43.416;23.232;2023-03-01T08:53:36;15.43;;;6.30;;
33696;SDS011;20031;43.416;23.232;2023-03-01T08:56:02;16.38;;;8.52;;
33696;SDS011;20031;43.416;23.232;2023-03-01T08:58:28;23.65;;;7.95;;
33696;SDS011;20031;43.416;23.232;2023-03-01T09:00:54;24.40;;;8.95;;
33696;SDS011;20031;43.416;23.232;2023-03-01T09:03:21;14.10;;;6.40;;
33696;SDS011;20031;43.416;23.232;2023-03-01T09:05:47;7.80;;;5.65;;
33696;SDS011;20031;43.416;23.232;2023-03-01T09:08:14;9.68;;;5.65;;
33696;SDS011;20031;43.416;23.232;2023-03-01T09:10:39;21.65;;;8.20;;
33696;SDS011;20031;43.416;23.232;2023-03-01T09:13:05;19.15;;;7.00;;
33696;SDS011;20031;43.416;23.232;2023-03-01T09:15:30;16.65;;;8.63;;
33696;SDS011;20031;43.416;23.232;2023-03-01T09:17:56;18.85;;;7.03;;
33696;SDS011;20031;43.416;23.232;2023-03-01T09:20:21;21.45;;;7.07;;
33696;SDS011;20031;43.416;23.232;2023-03-01T09:22:47;17.50;;;7.10;;
33696;SDS011;20031;43.416;23.232;2023-03-01T09:25:12;7.28;;;5.47;;
33696;SDS011;20031;43.416;23.232;2023-03-01T09:27:38;7.28;;;5.95;;
33696;SDS011;20031;43.416;23.232;2023-03-01T09:30:03;11.73;;;6.05;;
33696;SDS011;20031;43.416;23.232;2023-03-01T09:32:30;8.50;;;5.30;;
33696;SDS011;20031;43.416;23.232;2023-03-01T09:34:56;7.53;;;5.45;;
33696;SDS011;20031;43.416;23.232;2023-03-01T09:37:31;22.52;;;7.95;;
33696;SDS011;20031;43.416;23.232;2023-03-01T09:39:58;11.55;;;6.68;;
33696;SDS011;20031;43.416;23.232;2023-03-01T09:42:23;7.43;;;6.10;;
33696;SDS011;20031;43.416;23.232;2023-03-01T09:47:28;11.88;;;6.93;;
33696;SDS011;20031;43.416;23.232;2023-03-01T09:55:04;12.93;;;6.85;;
33696;SDS011;20031;43.416;23.232;2023-03-01T09:57:47;50.33;;;10.30;;
33696;SDS011;20031;43.416;23.232;2023-03-01T10:02:51;12.65;;;8.05;;
33696;SDS011;20031;43.416;23.232;2023-03-01T10:10:56;21.65;;;9.30;;
33696;SDS011;20031;43.416;23.232;2023-03-01T10:19:17;32.63;;;11.77;;
33696;SDS011;20031;43.416;23.232;2023-03-01T10:21:49;17.30;;;9.35;;
33696;SDS011;20031;43.416;23.232;2023-03-01T10:24:17;22.83;;;9.13;;
33696;SDS011;20031;43.416;23.232;2023-03-01T10:26:55;17.23;;;8.60;;
33696;SDS011;20031;43.416;23.232;2023-03-01T10:29:26;14.23;;;9.35;;
33696;SDS011;20031;43.416;23.232;2023-03-01T10:34:30;34.35;;;12.63;;
33696;SDS011;20031;43.416;23.232;2023-03-01T10:37:09;33.92;;;9.93;;
33696;SDS011;20031;43.416;23.232;2023-03-01T10:39:34;24.73;;;9.48;;
33696;SDS011;20031;43.416;23.232;2023-03-01T10:42:01;13.90;;;9.57;;
33696;SDS011;20031;43.416;23.232;2023-03-01T10:44:39;13.00;;;8.98;;
33696;SDS011;20031;43.416;23.232;2023-03-01T10:47:19;16.38;;;9.95;;
33696;SDS011;20031;43.416;23.232;2023-03-01T10:55:22;20.60;;;9.60;;
33696;SDS011;20031;43.416;23.232;2023-03-01T10:58:18;32.25;;;10.13;;
33696;SDS011;20031;43.416;23.232;2023-03-01T11:03:28;19.42;;;9.73;;
33696;SDS011;20031;43.416;23.232;2023-03-01T11:06:03;14.20;;;8.13;;
33696;SDS011;20031;43.416;23.232;2023-03-01T11:08:45;18.05;;;10.65;;
33696;SDS011;20031;43.416;23.232;2023-03-01T11:13:38;13.32;;;8.65;;
33696;SDS011;20031;43.416;23.232;2023-03-01T11:16:17;15.98;;;8.07;;
33696;SDS011;20031;43.416;23.232;2023-03-01T11:19:00;16.65;;;8.57;;
33696;SDS011;20031;43.416;23.232;2023-03-01T11:21:37;15.23;;;7.95;;
33696;SDS011;20031;43.416;23.232;2023-03-01T11:24:03;12.68;;;6.78;;
33696;SDS011;20031;43.416;23.232;2023-03-01T11:26:35;19.15;;;7.18;;
33696;SDS011;20031;43.416;23.232;2023-03-01T11:29:06;19.45;;;7.70;;
33696;SDS011;20031;43.416;23.232;2023-03-01T11:31:40;10.52;;;6.57;;
33696;SDS011;20031;43.416;23.232;2023-03-01T11:34:19;16.60;;;7.55;;
33696;SDS011;20031;43.416;23.232;2023-03-01T11:37:02;16.90;;;7.72;;
33696;SDS011;20031;43.416;23.232;2023-03-01T11:39:47;19.27;;;7.47;;
33696;SDS011;20031;43.416;23.232;2023-03-01T11:42:43;23.23;;;9.48;;
33696;SDS011;20031;43.416;23.232;2023-03-01T11:45:11;15.25;;;7.13;;
33696;SDS011;20031;43.416;23.232;2023-03-01T11:53:06;8.80;;;6.07;;
33696;SDS011;20031;43.416;23.232;2023-03-01T11:55:43;10.85;;;6.45;;
33696;SDS011;20031;43.416;23.232;2023-03-01T12:07:05;8.48;;;5.05;;
33696;SDS011;20031;43.416;23.232;2023-03-01T12:09:19;11.32;;;6.05;;
33696;SDS011;20031;43.416;23.232;2023-03-01T12:28:02;9.82;;;6.70;;
33696;SDS011;20031;43.416;23.232;2023-03-01T12:36:10;14.35;;;7.80;;
33696;SDS011;20031;43.416;23.232;2023-03-01T12:44:21;8.77;;;6.60;;
33696;SDS011;20031;43.416;23.232;2023-03-01T12:49:52;10.98;;;7.55;;
33696;SDS011;20031;43.416;23.232;2023-03-01T12:54:51;9.52;;;7.28;;
33696;SDS011;20031;43.416;23.232;2023-03-01T12:57:25;12.43;;;7.93;;
33696;SDS011;20031;43.416;23.232;2023-03-01T13:02:51;11.40;;;7.82;;
33696;SDS011;20031;43.416;23.232;2023-03-01T13:08:19;25.02;;;9.02;;
33696;SDS011;20031;43.416;23.232;2023-03-01T13:10:55;15.88;;;8.90;;
33696;SDS011;20031;43.416;23.232;2023-03-01T13:13:26;15.20;;;9.07;;
33696;SDS011;20031;43.416;23.232;2023-03-01T13:15:52;13.45;;;8.20;;
33696;SDS011;20031;43.416;23.232;2023-03-01T13:20:51;14.45;;;8.90;;
33696;SDS011;20031;43.416;23.232;2023-03-01T13:34:06;10.55;;;7.63;;
33696;SDS011;20031;43.416;23.232;2023-03-01T13:37:09;11.70;;;7.97;;
33696;SDS011;20031;43.416;23.232;2023-03-01T13:39:43;12.65;;;8.00;;
33696;SDS011;20031;43.416;23.232;2023-03-01T13:45:02;10.27;;;7.28;;
33696;SDS011;20031;43.416;23.232;2023-03-01T13:47:30;13.18;;;8.00;;
33696;SDS011;20031;43.416;23.232;2023-03-01T13:50:03;13.23;;;8.05;;
33696;SDS011;20031;43.416;23.232;2023-03-01T13:52:39;11.13;;;8.35;;
33696;SDS011;20031;43.416;23.232;2023-03-01T13:57:38;10.15;;;7.97;;
33696;SDS011;20031;43.416;23.232;2023-03-01T14:00:06;13.25;;;8.70;;
33696;SDS011;20031;43.416;23.232;2023-03-01T14:02:33;11.68;;;8.02;;
33696;SDS011;20031;43.416;23.232;2023-03-01T14:05:00;10.27;;;7.82;;
33696;SDS011;20031;43.416;23.232;2023-03-01T14:07:27;14.50;;;9.05;;
33696;SDS011;20031;43.416;23.232;2023-03-01T14:09:55;13.02;;;8.93;;
33696;SDS011;20031;43.416;23.232;2023-03-01T14:15:22;10.40;;;8.30;;
33696;SDS011;20031;43.416;23.232;2023-03-01T14:20:39;13.07;;;9.35;;
33696;SDS011;20031;43.416;23.232;2023-03-01T14:23:11;13.75;;;9.48;;
33696;SDS011;20031;43.416;23.232;2023-03-01T14:25:39;12.88;;;9.52;;
33696;SDS011;20031;43.416;23.232;2023-03-01T14:30:59;13.57;;;9.10;;
33696;SDS011;20031;43.416;23.232;2023-03-01T14:35:59;12.43;;;8.80;;
33696;SDS011;20031;43.416;23.232;2023-03-01T14:40:58;12.18;;;9.13;;
33696;SDS011;20031;43.416;23.232;2023-03-01T14:43:26;13.93;;;9.65;;
33696;SDS011;20031;43.416;23.232;2023-03-01T14:45:54;13.73;;;9.52;;
33696;SDS011;20031;43.416;23.232;2023-03-01T14:48:19;16.42;;;10.00;;
33696;SDS011;20031;43.416;23.232;2023-03-01T14:50:45;13.57;;;9.05;;
33696;SDS011;20031;43.416;23.232;2023-03-01T14:53:15;15.48;;;9.73;;
33696;SDS011;20031;43.416;23.232;2023-03-01T14:55:44;13.07;;;9.10;;
33696;SDS011;20031;43.416;23.232;2023-03-01T14:58:13;15.60;;;9.43;;
33696;SDS011;20031;43.416;23.232;2023-03-01T15:00:48;13.43;;;9.40;;
33696;SDS011;20031;43.416;23.232;2023-03-01T15:03:38;15.13;;;9.38;;
33696;SDS011;20031;43.416;23.232;2023-03-01T15:06:10;14.32;;;9.50;;
33696;SDS011;20031;43.416;23.232;2023-03-01T15:08:41;16.05;;;9.98;;
33696;SDS011;20031;43.416;23.232;2023-03-01T15:13:39;14.60;;;10.10;;
33696;SDS011;20031;43.416;23.232;2023-03-01T15:18:59;15.63;;;9.57;;
33696;SDS011;20031;43.416;23.232;2023-03-01T15:21:36;14.82;;;9.82;;
33696;SDS011;20031;43.416;23.232;2023-03-01T15:26:41;13.52;;;9.55;;
33696;SDS011;20031;43.416;23.232;2023-03-01T15:29:14;17.05;;;8.68;;
33696;SDS011;20031;43.416;23.232;2023-03-01T15:31:53;14.38;;;8.93;;
33696;SDS011;20031;43.416;23.232;2023-03-01T15:34:33;13.73;;;9.07;;
33696;SDS011;20031;43.416;23.232;2023-03-01T15:37:02;14.65;;;9.45;;
33696;SDS011;20031;43.416;23.232;2023-03-01T15:39:35;16.63;;;10.55;;
33696;SDS011;20031;43.416;23.232;2023-03-01T15:45:07;16.33;;;10.32;;
33696;SDS011;20031;43.416;23.232;2023-03-01T15:47:49;17.25;;;10.50;;
33696;SDS011;20031;43.416;23.232;2023-03-01T15:50:19;17.08;;;10.40;;
33696;SDS011;20031;43.416;23.232;2023-03-01T15:52:46;21.73;;;10.30;;
33696;SDS011;20031;43.416;23.232;2023-03-01T15:57:42;23.88;;;10.88;;
33696;SDS011;20031;43.416;23.232;2023-03-01T16:00:11;20.35;;;11.05;;
33696;SDS011;20031;43.416;23.232;2023-03-01T16:02:38;28.95;;;10.98;;
33696;SDS011;20031;43.416;23.232;2023-03-01T16:05:05;16.98;;;10.30;;
33696;SDS011;20031;43.416;23.232;2023-03-01T16:07:37;19.42;;;10.82;;
33696;SDS011;20031;43.416;23.232;2023-03-01T16:10:04;19.65;;;11.52;;
33696;SDS011;20031;43.416;23.232;2023-03-01T16:12:30;16.55;;;10.20;;
33696;SDS011;20031;43.416;23.232;2023-03-01T16:14:55;21.25;;;11.65;;
33696;SDS011;20031;43.416;23.232;2023-03-01T16:17:22;18.02;;;11.13;;
33696;SDS011;20031;43.416;23.232;2023-03-01T16:19:48;27.20;;;12.70;;
33696;SDS011;20031;43.416;23.232;2023-03-01T16:22:13;21.70;;;12.57;;
33696;SDS011;20031;43.416;23.232;2023-03-01T16:24:39;19.45;;;12.13;;
33696;SDS011;20031;43.416;23.232;2023-03-01T16:27:05;26.50;;;15.25;;
33696;SDS011;20031;43.416;23.232;2023-03-01T16:29:31;24.45;;;14.00;;
33696;SDS011;20031;43.416;23.232;2023-03-01T16:31:59;24.50;;;12.55;;
33696;SDS011;20031;43.416;23.232;2023-03-01T16:34:26;20.38;;;12.40;;
33696;SDS011;20031;43.416;23.232;2023-03-01T16:36:51;20.50;;;12.30;;
33696;SDS011;20031;43.416;23.232;2023-03-01T16:39:17;21.83;;;12.52;;
33696;SDS011;20031;43.416;23.232;2023-03-01T16:41:42;25.70;;;12.75;;
33696;SDS011;20031;43.416;23.232;2023-03-01T16:44:08;21.38;;;13.25;;
33696;SDS011;20031;43.416;23.232;2023-03-01T16:46:33;25.42;;;12.95;;
33696;SDS011;20031;43.416;23.232;2023-03-01T16:48:59;21.38;;;12.98;;
33696;SDS011;20031;43.416;23.232;2023-03-01T16:51:24;21.88;;;12.98;;
33696;SDS011;20031;43.416;23.232;2023-03-01T16:53:50;23.60;;;14.02;;